sensor_id;sensor_type;location;lat;lon;timestamp;temperature;humidity
12870;DHT22;6503;48.572;13.460;2022-08-21T00:01:48;18.20;99.90
12870;DHT22;6503;48.572;13.460;2022-08-21T00:04:17;18.20;99.90
12870;DHT22;6503;48.572;13.460;2022-08-21T00:06:46;18.30;99.90
12870;DHT22;6503;48.572;13.460;2022-08-21T00:09:16;18.20;99.90
12870;DHT22;6503;48.572;13.460;2022-08-21T00:11:48;18.20;99.90
12870;DHT22;6503;48.572;13.460;2022-08-21T00:14:17;18.20;99.90
12870;DHT22;6503;48.572;13.460;2022-08-21T00:16:47;18.30;99.90
12870;DHT22;6503;48.572;13.460;2022-08-21T00:19:16;18.30;99.90
12870;DHT22;6503;48.572;13.460;2022-08-21T00:21:46;18.30;99.90
12870;DHT22;6503;48.572;13.460;2022-08-21T00:24:15;18.30;99.90
12870;DHT22;6503;48.572;13.460;2022-08-21T00:26:47;18.30;99.90
12870;DHT22;6503;48.572;13.460;2022-08-21T00:29:17;18.30;99.90
12870;DHT22;6503;48.572;13.460;2022-08-21T00:31:46;18.40;99.90
12870;DHT22;6503;48.572;13.460;2022-08-21T00:34:16;18.40;99.90
12870;DHT22;6503;48.572;13.460;2022-08-21T00:36:45;18.40;99.90
12870;DHT22;6503;48.572;13.460;2022-08-21T00:39:15;18.40;99.90
12870;DHT22;6503;48.572;13.460;2022-08-21T00:41:47;18.40;99.90
12870;DHT22;6503;48.572;13.460;2022-08-21T00:44:17;18.40;99.90
12870;DHT22;6503;48.572;13.460;2022-08-21T00:46:47;18.30;99.90
12870;DHT22;6503;48.572;13.460;2022-08-21T00:49:17;18.30;99.90
12870;DHT22;6503;48.572;13.460;2022-08-21T00:51:51;18.30;99.90
12870;DHT22;6503;48.572;13.460;2022-08-21T00:54:25;18.30;99.90
12870;DHT22;6503;48.572;13.460;2022-08-21T00:57:00;18.30;99.90
12870;DHT22;6503;48.572;13.460;2022-08-21T00:59:33;18.20;99.90
12870;DHT22;6503;48.572;13.460;2022-08-21T01:02:06;18.30;99.90
12870;DHT22;6503;48.572;13.460;2022-08-21T01:04:36;18.30;99.90
12870;DHT22;6503;48.572;13.460;2022-08-21T01:07:05;18.30;99.90
12870;DHT22;6503;48.572;13.460;2022-08-21T01:09:35;18.20;99.90
12870;DHT22;6503;48.572;13.460;2022-08-21T01:12:08;18.10;99.90
12870;DHT22;6503;48.572;13.460;2022-08-21T01:14:40;18.10;99.90
12870;DHT22;6503;48.572;13.460;2022-08-21T01:17:11;18.30;99.90
12870;DHT22;6503;48.572;13.460;2022-08-21T01:19:42;18.30;99.90
12870;DHT22;6503;48.572;13.460;2022-08-21T01:22:14;18.30;99.90
12870;DHT22;6503;48.572;13.460;2022-08-21T01:24:44;18.30;99.90
12870;DHT22;6503;48.572;13.460;2022-08-21T01:27:14;18.30;99.90
12870;DHT22;6503;48.572;13.460;2022-08-21T01:29:46;18.30;99.90
12870;DHT22;6503;48.572;13.460;2022-08-21T01:32:19;18.30;99.90
12870;DHT22;6503;48.572;13.460;2022-08-21T01:34:50;18.30;99.90
12870;DHT22;6503;48.572;13.460;2022-08-21T01:37:22;18.30;99.90
12870;DHT22;6503;48.572;13.460;2022-08-21T01:39:52;18.30;99.90
12870;DHT22;6503;48.572;13.460;2022-08-21T01:42:21;18.30;99.90
12870;DHT22;6503;48.572;13.460;2022-08-21T01:44:50;18.30;99.90
12870;DHT22;6503;48.572;13.460;2022-08-21T01:47:22;18.30;99.90
12870;DHT22;6503;48.572;13.460;2022-08-21T01:49:52;18.20;99.90
12870;DHT22;6503;48.572;13.460;2022-08-21T01:52:23;18.30;99.90
12870;DHT22;6503;48.572;13.460;2022-08-21T01:54:53;18.30;99.90
12870;DHT22;6503;48.572;13.460;2022-08-21T01:57:23;18.30;99.90
12870;DHT22;6503;48.572;13.460;2022-08-21T01:59:53;18.30;99.90
12870;DHT22;6503;48.572;13.460;2022-08-21T02:02:23;18.30;99.90
12870;DHT22;6503;48.572;13.460;2022-08-21T02:04:52;18.20;99.90
12870;DHT22;6503;48.572;13.460;2022-08-21T02:07:24;18.20;99.90
12870;DHT22;6503;48.572;13.460;2022-08-21T02:09:54;18.20;99.90
12870;DHT22;6503;48.572;13.460;2022-08-21T02:12:24;18.20;99.90
12870;DHT22;6503;48.572;13.460;2022-08-21T02:14:55;18.10;99.90
12870;DHT22;6503;48.572;13.460;2022-08-21T02:17:25;18.10;99.90
12870;DHT22;6503;48.572;13.460;2022-08-21T02:19:54;18.10;99.90
12870;DHT22;6503;48.572;13.460;2022-08-21T02:22:26;18.10;99.90
12870;DHT22;6503;48.572;13.460;2022-08-21T02:24:55;18.20;99.90
12870;DHT22;6503;48.572;13.460;2022-08-21T02:27:25;18.30;99.90
12870;DHT22;6503;48.572;13.460;2022-08-21T02:29:56;18.20;99.90
12870;DHT22;6503;48.572;13.460;2022-08-21T02:32:26;18.20;99.90
12870;DHT22;6503;48.572;13.460;2022-08-21T02:34:55;18.10;99.90
12870;DHT22;6503;48.572;13.460;2022-08-21T02:37:27;18.10;99.90
12870;DHT22;6503;48.572;13.460;2022-08-21T02:39:56;18.10;99.90
12870;DHT22;6503;48.572;13.460;2022-08-21T02:42:26;18.10;99.90
12870;DHT22;6503;48.572;13.460;2022-08-21T02:44:56;18.10;99.90
12870;DHT22;6503;48.572;13.460;2022-08-21T02:47:26;18.10;99.90
12870;DHT22;6503;48.572;13.460;2022-08-21T02:49:55;18.10;99.90
12870;DHT22;6503;48.572;13.460;2022-08-21T02:52:27;18.10;99.90
12870;DHT22;6503;48.572;13.460;2022-08-21T02:54:56;18.20;99.90
12870;DHT22;6503;48.572;13.460;2022-08-21T02:57:26;18.20;99.90
12870;DHT22;6503;48.572;13.460;2022-08-21T02:59:55;18.10;99.90
12870;DHT22;6503;48.572;13.460;2022-08-21T03:02:24;18.10;99.90
12870;DHT22;6503;48.572;13.460;2022-08-21T03:04:54;18.10;99.90
12870;DHT22;6503;48.572;13.460;2022-08-21T03:07:25;18.10;99.90
12870;DHT22;6503;48.572;13.460;2022-08-21T03:09:56;18.10;99.90
12870;DHT22;6503;48.572;13.460;2022-08-21T03:12:26;18.10;99.90
12870;DHT22;6503;48.572;13.460;2022-08-21T03:14:55;18.10;99.90
12870;DHT22;6503;48.572;13.460;2022-08-21T03:17:25;18.10;99.90
12870;DHT22;6503;48.572;13.460;2022-08-21T03:19:55;18.20;99.90
12870;DHT22;6503;48.572;13.460;2022-08-21T03:22:27;18.20;99.90
12870;DHT22;6503;48.572;13.460;2022-08-21T03:24:56;18.20;99.90
12870;DHT22;6503;48.572;13.460;2022-08-21T03:27:27;18.20;99.90
12870;DHT22;6503;48.572;13.460;2022-08-21T03:29:58;18.20;99.90
12870;DHT22;6503;48.572;13.460;2022-08-21T03:32:27;18.20;99.90
12870;DHT22;6503;48.572;13.460;2022-08-21T03:34:58;18.20;99.90
12870;DHT22;6503;48.572;13.460;2022-08-21T03:37:30;18.20;99.90
12870;DHT22;6503;48.572;13.460;2022-08-21T03:40:00;18.20;99.90
12870;DHT22;6503;48.572;13.460;2022-08-21T03:42:29;18.30;99.90
12870;DHT22;6503;48.572;13.460;2022-08-21T03:44:59;18.20;99.90
12870;DHT22;6503;48.572;13.460;2022-08-21T03:47:28;18.20;99.90
12870;DHT22;6503;48.572;13.460;2022-08-21T03:49:58;18.10;99.90
12870;DHT22;6503;48.572;13.460;2022-08-21T03:52:29;18.10;99.90
12870;DHT22;6503;48.572;13.460;2022-08-21T03:54:59;18.20;99.90
12870;DHT22;6503;48.572;13.460;2022-08-21T03:57:29;18.20;99.90
12870;DHT22;6503;48.572;13.460;2022-08-21T04:00:04;18.20;99.90
12870;DHT22;6503;48.572;13.460;2022-08-21T04:02:35;18.20;99.90
12870;DHT22;6503;48.572;13.460;2022-08-21T04:05:05;18.10;99.90
12870;DHT22;6503;48.572;13.460;2022-08-21T04:07:38;18.10;99.90
12870;DHT22;6503;48.572;13.460;2022-08-21T04:10:08;18.20;99.90
12870;DHT22;6503;48.572;13.460;2022-08-21T04:12:37;18.20;99.90
12870;DHT22;6503;48.572;13.460;2022-08-21T04:15:07;18.20;99.90
12870;DHT22;6503;48.572;13.460;2022-08-21T04:17:36;18.20;99.90
12870;DHT22;6503;48.572;13.460;2022-08-21T04:20:06;18.30;99.90
12870;DHT22;6503;48.572;13.460;2022-08-21T04:22:38;18.30;99.90
12870;DHT22;6503;48.572;13.460;2022-08-21T04:25:08;18.30;99.90
12870;DHT22;6503;48.572;13.460;2022-08-21T04:27:37;18.30;99.90
12870;DHT22;6503;48.572;13.460;2022-08-21T04:30:07;18.30;99.90
12870;DHT22;6503;48.572;13.460;2022-08-21T04:32:38;18.40;99.90
12870;DHT22;6503;48.572;13.460;2022-08-21T04:35:09;18.30;99.90
12870;DHT22;6503;48.572;13.460;2022-08-21T04:37:41;18.30;99.90
12870;DHT22;6503;48.572;13.460;2022-08-21T04:40:13;18.30;99.90
12870;DHT22;6503;48.572;13.460;2022-08-21T04:42:46;18.30;99.90
12870;DHT22;6503;48.572;13.460;2022-08-21T04:45:23;18.30;99.90
12870;DHT22;6503;48.572;13.460;2022-08-21T04:47:55;18.30;99.90
12870;DHT22;6503;48.572;13.460;2022-08-21T04:50:35;18.20;99.90
12870;DHT22;6503;48.572;13.460;2022-08-21T04:53:11;18.10;99.90
12870;DHT22;6503;48.572;13.460;2022-08-21T04:55:42;18.10;99.90
12870;DHT22;6503;48.572;13.460;2022-08-21T04:58:14;18.10;99.90
12870;DHT22;6503;48.572;13.460;2022-08-21T05:00:46;18.20;99.90
12870;DHT22;6503;48.572;13.460;2022-08-21T05:03:17;18.20;99.90
12870;DHT22;6503;48.572;13.460;2022-08-21T05:05:46;18.20;99.90
12870;DHT22;6503;48.572;13.460;2022-08-21T05:08:21;18.20;99.90
12870;DHT22;6503;48.572;13.460;2022-08-21T05:10:53;18.10;99.90
12870;DHT22;6503;48.572;13.460;2022-08-21T05:13:24;18.20;99.90
12870;DHT22;6503;48.572;13.460;2022-08-21T05:15:53;18.20;99.90
12870;DHT22;6503;48.572;13.460;2022-08-21T05:18:23;18.30;99.90
12870;DHT22;6503;48.572;13.460;2022-08-21T05:20:52;18.30;99.90
12870;DHT22;6503;48.572;13.460;2022-08-21T05:23:24;18.40;99.90
12870;DHT22;6503;48.572;13.460;2022-08-21T05:25:54;18.40;99.90
12870;DHT22;6503;48.572;13.460;2022-08-21T05:28:24;18.50;99.90
12870;DHT22;6503;48.572;13.460;2022-08-21T05:30:54;18.50;99.90
12870;DHT22;6503;48.572;13.460;2022-08-21T05:33:24;18.50;99.90
12870;DHT22;6503;48.572;13.460;2022-08-21T05:35:54;18.60;99.90
12870;DHT22;6503;48.572;13.460;2022-08-21T05:38:27;18.60;99.90
12870;DHT22;6503;48.572;13.460;2022-08-21T05:40:56;18.50;99.90
12870;DHT22;6503;48.572;13.460;2022-08-21T05:43:26;18.60;99.90
12870;DHT22;6503;48.572;13.460;2022-08-21T05:45:56;18.60;99.90
12870;DHT22;6503;48.572;13.460;2022-08-21T05:48:26;18.50;99.90
12870;DHT22;6503;48.572;13.460;2022-08-21T05:50:56;18.40;99.90
12870;DHT22;6503;48.572;13.460;2022-08-21T05:53:28;18.50;99.90
12870;DHT22;6503;48.572;13.460;2022-08-21T05:55:58;18.50;99.90
12870;DHT22;6503;48.572;13.460;2022-08-21T05:58:31;18.60;99.90
12870;DHT22;6503;48.572;13.460;2022-08-21T06:01:02;18.50;99.90
12870;DHT22;6503;48.572;13.460;2022-08-21T06:03:34;18.60;99.90
12870;DHT22;6503;48.572;13.460;2022-08-21T06:06:04;18.60;99.90
12870;DHT22;6503;48.572;13.460;2022-08-21T06:08:35;18.70;99.90
12870;DHT22;6503;48.572;13.460;2022-08-21T06:11:05;18.70;99.90
12870;DHT22;6503;48.572;13.460;2022-08-21T06:13:36;18.70;99.90
12870;DHT22;6503;48.572;13.460;2022-08-21T06:16:07;18.70;99.90
12870;DHT22;6503;48.572;13.460;2022-08-21T06:18:39;18.70;99.90
12870;DHT22;6503;48.572;13.460;2022-08-21T06:21:09;18.60;99.90
12870;DHT22;6503;48.572;13.460;2022-08-21T06:23:41;18.70;99.90
12870;DHT22;6503;48.572;13.460;2022-08-21T06:26:12;18.70;99.90
12870;DHT22;6503;48.572;13.460;2022-08-21T06:28:43;18.80;99.90
12870;DHT22;6503;48.572;13.460;2022-08-21T06:31:14;18.80;99.90
12870;DHT22;6503;48.572;13.460;2022-08-21T06:33:44;18.80;99.90
12870;DHT22;6503;48.572;13.460;2022-08-21T06:36:14;18.90;99.90
12870;DHT22;6503;48.572;13.460;2022-08-21T06:38:46;18.90;99.90
12870;DHT22;6503;48.572;13.460;2022-08-21T06:41:15;18.80;99.90
12870;DHT22;6503;48.572;13.460;2022-08-21T06:43:45;18.80;99.90
12870;DHT22;6503;48.572;13.460;2022-08-21T06:46:15;18.90;99.90
12870;DHT22;6503;48.572;13.460;2022-08-21T06:48:44;18.90;99.90
12870;DHT22;6503;48.572;13.460;2022-08-21T06:51:13;19.00;99.90
12870;DHT22;6503;48.572;13.460;2022-08-21T06:53:43;19.00;99.90
12870;DHT22;6503;48.572;13.460;2022-08-21T06:56:15;18.90;99.90
12870;DHT22;6503;48.572;13.460;2022-08-21T06:58:45;18.90;99.90
12870;DHT22;6503;48.572;13.460;2022-08-21T07:01:14;19.00;99.90
12870;DHT22;6503;48.572;13.460;2022-08-21T07:03:44;19.00;99.90
12870;DHT22;6503;48.572;13.460;2022-08-21T07:06:13;19.00;99.90
12870;DHT22;6503;48.572;13.460;2022-08-21T07:08:43;19.10;99.90
12870;DHT22;6503;48.572;13.460;2022-08-21T07:11:18;19.20;99.90
12870;DHT22;6503;48.572;13.460;2022-08-21T07:13:48;19.30;99.90
12870;DHT22;6503;48.572;13.460;2022-08-21T07:16:19;19.10;99.90
12870;DHT22;6503;48.572;13.460;2022-08-21T07:18:49;19.20;99.90
12870;DHT22;6503;48.572;13.460;2022-08-21T07:21:18;19.30;99.90
12870;DHT22;6503;48.572;13.460;2022-08-21T07:23:51;19.40;99.90
12870;DHT22;6503;48.572;13.460;2022-08-21T07:26:23;19.30;99.90
12870;DHT22;6503;48.572;13.460;2022-08-21T07:28:54;19.40;99.90
12870;DHT22;6503;48.572;13.460;2022-08-21T07:31:25;19.50;99.90
12870;DHT22;6503;48.572;13.460;2022-08-21T07:33:56;19.40;99.90
12870;DHT22;6503;48.572;13.460;2022-08-21T07:36:47;19.30;99.90
12870;DHT22;6503;48.572;13.460;2022-08-21T07:39:19;19.30;99.90
12870;DHT22;6503;48.572;13.460;2022-08-21T07:41:50;19.30;99.90
12870;DHT22;6503;48.572;13.460;2022-08-21T07:44:20;19.30;99.90
12870;DHT22;6503;48.572;13.460;2022-08-21T07:46:49;19.30;99.90
12870;DHT22;6503;48.572;13.460;2022-08-21T07:49:19;19.40;99.90
12870;DHT22;6503;48.572;13.460;2022-08-21T07:51:49;19.50;99.90
12870;DHT22;6503;48.572;13.460;2022-08-21T07:54:19;19.50;99.90
12870;DHT22;6503;48.572;13.460;2022-08-21T07:56:51;19.50;99.90
12870;DHT22;6503;48.572;13.460;2022-08-21T07:59:21;19.60;99.90
12870;DHT22;6503;48.572;13.460;2022-08-21T08:01:51;19.70;99.90
12870;DHT22;6503;48.572;13.460;2022-08-21T08:04:21;19.80;99.90
12870;DHT22;6503;48.572;13.460;2022-08-21T08:06:52;19.90;99.90
12870;DHT22;6503;48.572;13.460;2022-08-21T08:09:23;20.00;99.90
12870;DHT22;6503;48.572;13.460;2022-08-21T08:11:55;19.90;99.90
12870;DHT22;6503;48.572;13.460;2022-08-21T08:14:24;19.80;99.90
12870;DHT22;6503;48.572;13.460;2022-08-21T08:16:55;19.60;99.90
12870;DHT22;6503;48.572;13.460;2022-08-21T08:19:25;19.60;99.90
12870;DHT22;6503;48.572;13.460;2022-08-21T08:21:55;19.80;99.90
12870;DHT22;6503;48.572;13.460;2022-08-21T08:24:25;19.90;99.90
12870;DHT22;6503;48.572;13.460;2022-08-21T08:26:58;19.90;99.90
12870;DHT22;6503;48.572;13.460;2022-08-21T08:29:27;19.80;99.90
12870;DHT22;6503;48.572;13.460;2022-08-21T08:31:57;19.90;99.90
12870;DHT22;6503;48.572;13.460;2022-08-21T08:34:28;20.00;99.90
12870;DHT22;6503;48.572;13.460;2022-08-21T08:36:57;20.00;99.90
12870;DHT22;6503;48.572;13.460;2022-08-21T08:39:27;19.90;99.90
12870;DHT22;6503;48.572;13.460;2022-08-21T08:42:05;20.00;99.90
12870;DHT22;6503;48.572;13.460;2022-08-21T08:44:37;20.20;99.90
12870;DHT22;6503;48.572;13.460;2022-08-21T08:47:09;20.30;99.90
12870;DHT22;6503;48.572;13.460;2022-08-21T08:49:55;20.40;99.90
12870;DHT22;6503;48.572;13.460;2022-08-21T08:52:30;20.40;99.90
12870;DHT22;6503;48.572;13.460;2022-08-21T08:55:05;20.60;99.90
12870;DHT22;6503;48.572;13.460;2022-08-21T08:57:42;20.70;99.90
12870;DHT22;6503;48.572;13.460;2022-08-21T09:00:15;20.60;99.90
12870;DHT22;6503;48.572;13.460;2022-08-21T09:02:46;20.80;99.90
12870;DHT22;6503;48.572;13.460;2022-08-21T09:05:22;20.90;99.90
12870;DHT22;6503;48.572;13.460;2022-08-21T09:08:09;20.80;99.90
12870;DHT22;6503;48.572;13.460;2022-08-21T09:10:53;21.00;99.90
12870;DHT22;6503;48.572;13.460;2022-08-21T09:13:41;21.20;99.90
12870;DHT22;6503;48.572;13.460;2022-08-21T09:16:20;21.40;99.90
12870;DHT22;6503;48.572;13.460;2022-08-21T09:18:55;21.60;99.90
12870;DHT22;6503;48.572;13.460;2022-08-21T09:21:38;21.70;99.90
12870;DHT22;6503;48.572;13.460;2022-08-21T09:24:29;21.60;99.90
12870;DHT22;6503;48.572;13.460;2022-08-21T09:27:06;21.50;99.90
12870;DHT22;6503;48.572;13.460;2022-08-21T09:29:40;21.60;99.90
12870;DHT22;6503;48.572;13.460;2022-08-21T09:32:16;21.70;99.90
12870;DHT22;6503;48.572;13.460;2022-08-21T09:34:59;21.60;99.90
12870;DHT22;6503;48.572;13.460;2022-08-21T09:37:33;21.60;99.90
12870;DHT22;6503;48.572;13.460;2022-08-21T09:40:18;21.50;99.90
12870;DHT22;6503;48.572;13.460;2022-08-21T09:42:57;21.80;99.90
12870;DHT22;6503;48.572;13.460;2022-08-21T09:45:30;22.10;99.90
12870;DHT22;6503;48.572;13.460;2022-08-21T09:48:11;22.40;99.90
12870;DHT22;6503;48.572;13.460;2022-08-21T09:50:43;22.50;99.90
12870;DHT22;6503;48.572;13.460;2022-08-21T09:53:19;22.50;99.90
12870;DHT22;6503;48.572;13.460;2022-08-21T09:55:52;22.40;99.90
12870;DHT22;6503;48.572;13.460;2022-08-21T09:58:40;22.20;99.90
12870;DHT22;6503;48.572;13.460;2022-08-21T10:01:17;22.10;99.90
12870;DHT22;6503;48.572;13.460;2022-08-21T10:03:48;22.00;99.90
12870;DHT22;6503;48.572;13.460;2022-08-21T10:06:26;22.10;99.90
12870;DHT22;6503;48.572;13.460;2022-08-21T10:09:06;22.20;99.90
12870;DHT22;6503;48.572;13.460;2022-08-21T10:11:37;22.30;99.90
12870;DHT22;6503;48.572;13.460;2022-08-21T10:14:16;22.50;99.90
12870;DHT22;6503;48.572;13.460;2022-08-21T10:17:04;22.80;99.90
12870;DHT22;6503;48.572;13.460;2022-08-21T10:19:46;22.70;99.90
12870;DHT22;6503;48.572;13.460;2022-08-21T10:22:29;22.80;99.90
12870;DHT22;6503;48.572;13.460;2022-08-21T10:25:08;22.70;99.90
12870;DHT22;6503;48.572;13.460;2022-08-21T10:27:49;22.90;99.90
12870;DHT22;6503;48.572;13.460;2022-08-21T10:30:29;23.20;99.90
12870;DHT22;6503;48.572;13.460;2022-08-21T10:33:23;23.30;99.90
12870;DHT22;6503;48.572;13.460;2022-08-21T10:36:05;23.40;99.90
12870;DHT22;6503;48.572;13.460;2022-08-21T10:38:55;23.30;99.90
12870;DHT22;6503;48.572;13.460;2022-08-21T10:41:42;23.20;99.90
12870;DHT22;6503;48.572;13.460;2022-08-21T10:44:25;23.10;99.90
12870;DHT22;6503;48.572;13.460;2022-08-21T10:47:04;23.10;99.90
12870;DHT22;6503;48.572;13.460;2022-08-21T10:49:42;23.20;99.90
12870;DHT22;6503;48.572;13.460;2022-08-21T10:52:43;23.20;99.90
12870;DHT22;6503;48.572;13.460;2022-08-21T10:55:17;23.00;99.90
12870;DHT22;6503;48.572;13.460;2022-08-21T10:57:51;23.10;99.90
12870;DHT22;6503;48.572;13.460;2022-08-21T11:00:28;23.30;99.90
12870;DHT22;6503;48.572;13.460;2022-08-21T11:03:03;23.40;99.90
12870;DHT22;6503;48.572;13.460;2022-08-21T11:05:42;23.50;99.90
12870;DHT22;6503;48.572;13.460;2022-08-21T11:08:18;23.70;99.90
12870;DHT22;6503;48.572;13.460;2022-08-21T11:10:57;24.10;99.90
12870;DHT22;6503;48.572;13.460;2022-08-21T11:13:35;24.40;99.90
12870;DHT22;6503;48.572;13.460;2022-08-21T11:16:15;24.50;99.90
12870;DHT22;6503;48.572;13.460;2022-08-21T11:18:50;24.60;99.90
12870;DHT22;6503;48.572;13.460;2022-08-21T11:21:37;24.60;99.90
12870;DHT22;6503;48.572;13.460;2022-08-21T11:24:21;24.40;99.90
12870;DHT22;6503;48.572;13.460;2022-08-21T11:27:01;24.30;99.90
12870;DHT22;6503;48.572;13.460;2022-08-21T11:29:36;24.30;99.90
12870;DHT22;6503;48.572;13.460;2022-08-21T11:35:13;24.00;99.90
12870;DHT22;6503;48.572;13.460;2022-08-21T11:38:00;23.90;99.90
12870;DHT22;6503;48.572;13.460;2022-08-21T11:40:47;23.90;99.90
12870;DHT22;6503;48.572;13.460;2022-08-21T11:43:28;24.10;99.90
12870;DHT22;6503;48.572;13.460;2022-08-21T11:46:17;24.20;99.90
12870;DHT22;6503;48.572;13.460;2022-08-21T11:48:59;24.40;99.90
12870;DHT22;6503;48.572;13.460;2022-08-21T11:51:36;24.70;99.90
12870;DHT22;6503;48.572;13.460;2022-08-21T11:54:24;24.90;99.90
12870;DHT22;6503;48.572;13.460;2022-08-21T11:56:59;25.00;99.90
12870;DHT22;6503;48.572;13.460;2022-08-21T11:59:37;25.10;99.90
12870;DHT22;6503;48.572;13.460;2022-08-21T12:02:14;25.20;99.90
12870;DHT22;6503;48.572;13.460;2022-08-21T12:04:47;25.40;99.90
12870;DHT22;6503;48.572;13.460;2022-08-21T12:07:30;25.50;99.90
12870;DHT22;6503;48.572;13.460;2022-08-21T12:10:06;25.40;99.90
12870;DHT22;6503;48.572;13.460;2022-08-21T12:12:38;25.40;99.90
12870;DHT22;6503;48.572;13.460;2022-08-21T12:15:26;25.40;99.90
12870;DHT22;6503;48.572;13.460;2022-08-21T12:18:00;25.20;99.90
12870;DHT22;6503;48.572;13.460;2022-08-21T12:20:40;24.80;99.90
12870;DHT22;6503;48.572;13.460;2022-08-21T12:23:24;24.50;99.90
12870;DHT22;6503;48.572;13.460;2022-08-21T12:26:24;24.10;99.90
12870;DHT22;6503;48.572;13.460;2022-08-21T12:29:12;23.70;99.90
12870;DHT22;6503;48.572;13.460;2022-08-21T12:31:56;23.30;99.90
12870;DHT22;6503;48.572;13.460;2022-08-21T12:34:36;23.10;99.90
12870;DHT22;6503;48.572;13.460;2022-08-21T12:37:15;22.90;99.90
12870;DHT22;6503;48.572;13.460;2022-08-21T12:39:48;22.70;99.90
12870;DHT22;6503;48.572;13.460;2022-08-21T12:42:24;22.70;99.90
12870;DHT22;6503;48.572;13.460;2022-08-21T12:45:03;22.70;99.90
12870;DHT22;6503;48.572;13.460;2022-08-21T12:47:36;22.70;99.90
12870;DHT22;6503;48.572;13.460;2022-08-21T12:50:19;22.70;99.90
12870;DHT22;6503;48.572;13.460;2022-08-21T12:52:58;22.70;99.90
12870;DHT22;6503;48.572;13.460;2022-08-21T12:55:31;22.60;99.90
12870;DHT22;6503;48.572;13.460;2022-08-21T12:58:06;22.60;99.90
12870;DHT22;6503;48.572;13.460;2022-08-21T13:00:36;22.70;99.90
12870;DHT22;6503;48.572;13.460;2022-08-21T13:03:09;22.70;99.90
12870;DHT22;6503;48.572;13.460;2022-08-21T13:05:40;22.80;99.90
12870;DHT22;6503;48.572;13.460;2022-08-21T13:08:11;22.80;99.90
12870;DHT22;6503;48.572;13.460;2022-08-21T13:10:42;22.80;99.90
12870;DHT22;6503;48.572;13.460;2022-08-21T13:13:19;22.80;99.90
12870;DHT22;6503;48.572;13.460;2022-08-21T13:15:57;22.60;99.90
12870;DHT22;6503;48.572;13.460;2022-08-21T13:18:30;22.60;99.90
12870;DHT22;6503;48.572;13.460;2022-08-21T13:21:06;22.90;99.90
12870;DHT22;6503;48.572;13.460;2022-08-21T13:23:37;23.40;99.90
12870;DHT22;6503;48.572;13.460;2022-08-21T13:26:15;23.80;99.90
12870;DHT22;6503;48.572;13.460;2022-08-21T13:28:48;24.10;99.90
12870;DHT22;6503;48.572;13.460;2022-08-21T13:31:22;24.20;99.90
12870;DHT22;6503;48.572;13.460;2022-08-21T13:33:55;23.90;99.90
12870;DHT22;6503;48.572;13.460;2022-08-21T13:36:28;23.40;99.90
12870;DHT22;6503;48.572;13.460;2022-08-21T13:38:59;23.20;99.90
12870;DHT22;6503;48.572;13.460;2022-08-21T13:41:31;23.20;99.90
12870;DHT22;6503;48.572;13.460;2022-08-21T13:44:13;23.30;99.90
12870;DHT22;6503;48.572;13.460;2022-08-21T13:46:48;23.30;99.90
12870;DHT22;6503;48.572;13.460;2022-08-21T13:49:21;23.20;99.90
12870;DHT22;6503;48.572;13.460;2022-08-21T13:51:53;23.10;99.90
12870;DHT22;6503;48.572;13.460;2022-08-21T13:54:27;22.70;99.90
12870;DHT22;6503;48.572;13.460;2022-08-21T13:56:58;22.40;99.90
12870;DHT22;6503;48.572;13.460;2022-08-21T13:59:32;22.20;99.90
12870;DHT22;6503;48.572;13.460;2022-08-21T14:02:11;22.00;99.90
12870;DHT22;6503;48.572;13.460;2022-08-21T14:04:48;21.80;99.90
12870;DHT22;6503;48.572;13.460;2022-08-21T14:07:24;21.80;99.90
12870;DHT22;6503;48.572;13.460;2022-08-21T14:09:56;21.70;99.90
12870;DHT22;6503;48.572;13.460;2022-08-21T14:12:36;21.80;99.90
12870;DHT22;6503;48.572;13.460;2022-08-21T14:15:13;22.00;99.90
12870;DHT22;6503;48.572;13.460;2022-08-21T14:17:47;22.20;99.90
12870;DHT22;6503;48.572;13.460;2022-08-21T14:20:29;22.20;99.90
12870;DHT22;6503;48.572;13.460;2022-08-21T14:23:00;22.30;99.90
12870;DHT22;6503;48.572;13.460;2022-08-21T14:25:37;22.50;99.90
12870;DHT22;6503;48.572;13.460;2022-08-21T14:28:23;22.60;99.90
12870;DHT22;6503;48.572;13.460;2022-08-21T14:30:57;22.60;99.90
12870;DHT22;6503;48.572;13.460;2022-08-21T14:33:31;22.50;99.90
12870;DHT22;6503;48.572;13.460;2022-08-21T14:36:02;22.30;99.90
12870;DHT22;6503;48.572;13.460;2022-08-21T14:38:34;22.30;99.90
12870;DHT22;6503;48.572;13.460;2022-08-21T14:41:13;22.40;99.90
12870;DHT22;6503;48.572;13.460;2022-08-21T14:43:46;22.50;99.90
12870;DHT22;6503;48.572;13.460;2022-08-21T14:46:21;22.60;99.90
12870;DHT22;6503;48.572;13.460;2022-08-21T14:48:52;22.70;99.90
12870;DHT22;6503;48.572;13.460;2022-08-21T14:51:22;22.70;99.90
12870;DHT22;6503;48.572;13.460;2022-08-21T14:53:52;22.80;99.90
12870;DHT22;6503;48.572;13.460;2022-08-21T14:56:22;22.80;99.90
12870;DHT22;6503;48.572;13.460;2022-08-21T14:58:53;22.70;99.90
12870;DHT22;6503;48.572;13.460;2022-08-21T15:01:26;22.70;99.90
12870;DHT22;6503;48.572;13.460;2022-08-21T15:03:56;22.70;99.90
12870;DHT22;6503;48.572;13.460;2022-08-21T15:06:26;22.70;99.90
12870;DHT22;6503;48.572;13.460;2022-08-21T15:08:57;22.70;99.90
12870;DHT22;6503;48.572;13.460;2022-08-21T15:11:31;22.70;99.90
12870;DHT22;6503;48.572;13.460;2022-08-21T15:14:03;22.80;99.90
12870;DHT22;6503;48.572;13.460;2022-08-21T15:16:37;22.80;99.90
12870;DHT22;6503;48.572;13.460;2022-08-21T15:19:08;22.70;99.90
12870;DHT22;6503;48.572;13.460;2022-08-21T15:21:37;22.80;99.90
12870;DHT22;6503;48.572;13.460;2022-08-21T15:24:07;22.80;99.90
12870;DHT22;6503;48.572;13.460;2022-08-21T15:26:37;22.80;99.90
12870;DHT22;6503;48.572;13.460;2022-08-21T15:29:08;22.80;99.90
12870;DHT22;6503;48.572;13.460;2022-08-21T15:31:52;22.80;99.90
12870;DHT22;6503;48.572;13.460;2022-08-21T15:34:22;22.90;99.90
12870;DHT22;6503;48.572;13.460;2022-08-21T15:36:51;22.90;99.90
12870;DHT22;6503;48.572;13.460;2022-08-21T15:39:24;22.90;99.90
12870;DHT22;6503;48.572;13.460;2022-08-21T15:41:54;23.00;99.90
12870;DHT22;6503;48.572;13.460;2022-08-21T15:44:25;23.00;99.90
12870;DHT22;6503;48.572;13.460;2022-08-21T15:46:59;23.00;99.90
12870;DHT22;6503;48.572;13.460;2022-08-21T15:49:31;22.80;99.90
12870;DHT22;6503;48.572;13.460;2022-08-21T15:52:02;22.80;99.90
12870;DHT22;6503;48.572;13.460;2022-08-21T15:54:32;22.70;99.90
12870;DHT22;6503;48.572;13.460;2022-08-21T15:57:02;22.70;99.90
12870;DHT22;6503;48.572;13.460;2022-08-21T15:59:43;22.70;99.90
12870;DHT22;6503;48.572;13.460;2022-08-21T16:02:21;22.60;99.90
12870;DHT22;6503;48.572;13.460;2022-08-21T16:04:51;22.60;99.90
12870;DHT22;6503;48.572;13.460;2022-08-21T16:07:22;22.60;99.90
12870;DHT22;6503;48.572;13.460;2022-08-21T16:09:52;22.40;99.90
12870;DHT22;6503;48.572;13.460;2022-08-21T16:12:25;22.30;99.90